Time;durP1;ratioP1;P1;durP2;ratioP2;P2;SDS_P1;SDS_P2;PMS_P1;PMS_P2;Temp;Humidity;BMP_temperature;BMP_pressure;BME280_temperature;BME280_humidity;BME280_pressure;Samples;Min_cycle;Max_cycle;Signal;HPM_P1;HPM_P2
2022/05/17 00:01:19;;;;;;;6.65;4.75;;;;;;;19.70;63.57;100638.91;4895580;29;20073;-75
2022/05/17 00:03:46;;;;;;;;;;;;;;;19.38;63.51;100604.41;4895102;29;20053;-75
2022/05/17 00:06:12;;;;;;;12.13;5.25;;;;;;;19.31;63.66;100602.88;4910253;29;19919;-75
2022/05/17 00:08:39;;;;;;;12.07;5.55;;;;;;;19.37;63.70;100593.84;4886824;29;20040;-75
2022/05/17 00:11:06;;;;;;;8.50;4.50;;;;;;;19.64;64.17;100642.59;4886467;29;20076;-77
2022/05/17 00:13:32;;;;;;;7.60;4.28;;;;;;;19.15;64.85;100583.00;4890740;29;20406;-75
2022/05/17 00:15:59;;;;;;;10.35;5.10;;;;;;;19.52;65.03;100635.88;4889930;29;20048;-75
2022/05/17 00:18:25;;;;;;;7.40;5.63;;;;;;;19.32;66.53;100635.69;4884214;29;20046;-76
2022/05/17 00:20:52;;;;;;;16.15;5.15;;;;;;;19.07;66.69;100593.91;4906634;29;20118;-75
2022/05/17 00:23:19;;;;;;;8.52;5.95;;;;;;;18.81;65.43;100583.25;4892125;29;20078;-75
2022/05/17 00:25:47;;;;;;;6.80;4.95;;;;;;;18.74;66.08;100588.72;4892020;29;20313;-75
2022/05/17 00:28:16;;;;;;;14.05;5.78;;;;;;;18.45;66.98;100589.59;4890653;29;20067;-75
2022/05/17 00:30:42;;;;;;;16.40;5.93;;;;;;;18.50;67.86;100592.13;4889307;29;20064;-74
2022/05/17 00:33:08;;;;;;;7.55;6.20;;;;;;;18.80;67.85;100647.94;4890426;29;20171;-74
2022/05/17 00:35:34;;;;;;;16.23;5.63;;;;;;;18.43;68.94;100643.72;4892314;29;20148;-74
2022/05/17 00:38:02;;;;;;;11.75;5.35;;;;;;;18.54;67.47;100594.66;4889891;29;20053;-75
2022/05/17 00:40:28;;;;;;;8.93;5.93;;;;;;;18.46;67.69;100588.69;4878645;29;20053;-74
2022/05/17 00:42:54;;;;;;;11.45;6.55;;;;;;;18.87;68.26;100644.19;4889513;29;20113;-75
2022/05/17 00:45:25;;;;;;;8.60;5.90;;;;;;;18.50;69.02;100594.78;4887484;29;20508;-74
2022/05/17 00:48:04;;;;;;;7.72;6.43;;;;;;;18.55;69.62;100607.00;4891140;29;20047;-74
2022/05/17 00:50:38;;;;;;;13.35;6.35;;;;;;;18.45;70.11;100583.41;4892740;29;20508;-74
2022/05/17 00:53:21;;;;;;;16.00;7.22;;;;;;;18.73;70.35;100641.91;4887670;29;20494;-76
2022/05/17 00:55:59;;;;;;;10.10;7.05;;;;;;;18.62;71.50;100633.41;4906093;29;20590;-74
2022/05/17 00:58:33;;;;;;;14.32;7.22;;;;;;;18.10;72.85;100603.91;4888784;29;20048;-74
2022/05/17 01:01:15;;;;;;;10.75;8.25;;;;;;;18.21;71.97;100580.53;4889920;29;20113;-74
2022/05/17 01:03:56;;;;;;;8.35;7.10;;;;;;;18.56;72.45;100624.69;4891955;29;20049;-75
2022/05/17 01:06:42;;;;;;;11.18;8.48;;;;;;;18.30;72.42;100588.25;4899217;29;20090;-74
2022/05/17 01:09:09;;;;;;;12.40;8.00;;;;;;;18.14;72.99;100582.53;4891318;29;20036;-75
2022/05/17 01:11:35;;;;;;;15.20;9.52;;;;;;;18.10;72.98;100585.31;4892262;29;20056;-75
2022/05/17 01:16:46;;;;;;;14.43;9.13;;;;;;;17.90;74.33;100569.94;4890057;29;20540;-76
2022/05/17 01:19:13;;;;;;;11.68;8.23;;;;;;;17.59;74.89;100569.88;4887475;29;20064;-75
2022/05/17 01:21:41;;;;;;;10.90;8.73;;;;;;;17.62;75.38;100570.63;4899496;29;20048;-76
2022/05/17 01:24:07;;;;;;;11.95;8.48;;;;;;;17.97;74.21;100558.22;4912308;29;20555;-75
2022/05/17 01:26:38;;;;;;;18.45;9.82;;;;;;;17.92;75.12;100568.97;4895547;29;20056;-75
2022/05/17 01:29:05;;;;;;;11.85;7.75;;;;;;;17.79;75.87;100582.59;4907231;29;20040;-75
2022/05/17 01:31:32;;;;;;;12.38;7.97;;;;;;;18.18;75.34;100607.22;4899182;29;20537;-75
2022/05/17 01:34:14;;;;;;;15.02;9.02;;;;;;;17.67;76.13;100554.59;4892282;29;20059;-76
2022/05/17 01:36:40;;;;;;;17.17;9.25;;;;;;;17.73;76.75;100600.44;4895678;29;20793;-75
2022/05/17 01:39:07;;;;;;;15.52;8.27;;;;;;;17.52;77.40;100585.94;4894300;29;20036;-75
2022/05/17 01:41:33;;;;;;;8.85;6.65;;;;;;;17.33;77.32;100573.19;4896093;29;20620;-75
2022/05/17 01:43:59;;;;;;;10.32;8.10;;;;;;;17.54;77.75;100620.41;4898024;29;20136;-75
2022/05/17 01:46:25;;;;;;;9.40;7.93;;;;;;;17.56;77.95;100613.28;4896351;29;20055;-75
2022/05/17 01:48:51;;;;;;;8.38;7.57;;;;;;;17.16;77.97;100557.69;4895234;29;20533;-74
2022/05/17 01:51:19;;;;;;;14.55;10.23;;;;;;;17.18;78.12;100570.00;4903638;29;20088;-75
2022/05/17 01:53:44;;;;;;;12.95;8.18;;;;;;;17.39;77.66;100557.09;4897768;29;20479;-74
2022/05/17 01:56:12;;;;;;;10.07;8.70;;;;;;;17.76;77.40;100596.81;4900498;29;20174;-74
2022/05/17 01:58:41;;;;;;;11.02;9.05;;;;;;;17.46;77.55;100571.94;4895494;29;20052;-74
2022/05/17 02:01:10;;;;;;;17.90;8.77;;;;;;;17.59;77.58;100599.91;4896463;29;20040;-74
2022/05/17 02:03:36;;;;;;;17.88;10.00;;;;;;;17.64;77.30;100587.41;4885938;29;20084;-75
2022/05/17 02:06:03;;;;;;;12.65;9.23;;;;;;;17.33;77.75;100554.63;4904637;29;20068;-75
2022/05/17 02:08:29;;;;;;;15.43;9.57;;;;;;;17.18;78.03;100559.38;4892548;29;20056;-75
2022/05/17 02:10:56;;;;;;;14.13;9.27;;;;;;;17.62;77.99;100607.78;4887727;29;20792;-75
2022/05/17 02:13:22;;;;;;;14.15;10.05;;;;;;;17.33;77.21;100576.72;4907962;29;20196;-75
2022/05/17 02:15:48;;;;;;;14.80;11.13;;;;;;;17.56;77.39;100601.78;4894034;29;21540;-75
2022/05/17 02:18:14;;;;;;;12.10;9.07;;;;;;;17.42;76.32;100549.06;4893437;29;20037;-75
2022/05/17 02:20:39;;;;;;;14.98;9.80;;;;;;;17.79;75.68;100598.50;4889043;29;20524;-75
2022/05/17 02:23:07;;;;;;;12.85;9.98;;;;;;;17.48;76.31;100554.22;4898193;29;21064;-75
2022/05/17 02:25:34;;;;;;;12.52;9.43;;;;;;;17.57;77.11;100596.44;4890069;29;20213;-74
2022/05/17 02:27:59;;;;;;;11.65;9.35;;;;;;;17.36;77.49;100550.09;4893197;29;20108;-75
2022/05/17 02:30:25;;;;;;;11.90;8.02;;;;;;;17.75;77.27;100592.44;4886813;29;20036;-74
2022/05/17 02:32:51;;;;;;;14.73;9.80;;;;;;;17.60;78.48;100595.47;4906736;29;20486;-74
2022/05/17 02:35:18;;;;;;;15.43;8.60;;;;;;;17.58;78.36;100603.47;4891289;29;20091;-74
2022/05/17 02:38:05;;;;;;;16.25;10.05;;;;;;;17.44;78.96;100598.53;4908829;29;20112;-74
2022/05/17 02:40:31;;;;;;;18.85;9.18;;;;;;;17.36;79.39;100599.63;4891643;29;20055;-74
2022/05/17 02:42:57;;;;;;;15.07;9.20;;;;;;;17.41;79.40;100590.63;4897884;29;20060;-74
2022/05/17 02:45:24;;;;;;;17.38;9.13;;;;;;;17.05;80.05;100577.38;4892979;29;20458;-74
2022/05/17 02:47:50;;;;;;;17.58;10.27;;;;;;;17.06;79.64;100551.75;4891992;29;20040;-74
2022/05/17 02:50:16;;;;;;;11.73;8.25;;;;;;;16.92;80.20;100549.41;4905491;29;20053;-74
2022/05/17 02:52:42;;;;;;;27.60;10.02;;;;;;;16.93;80.51;100545.88;4892381;29;20068;-74
2022/05/17 02:55:09;;;;;;;14.95;9.07;;;;;;;16.90;80.48;100547.72;4892963;29;20120;-75
2022/05/17 02:57:34;;;;;;;10.75;8.70;;;;;;;17.13;80.87;100601.06;4893856;29;20032;-74
2022/05/17 03:00:00;;;;;;;12.48;10.13;;;;;;;16.68;80.87;100533.16;4880962;29;20088;-74
2022/05/17 03:02:28;;;;;;;33.30;10.93;;;;;;;16.90;80.56;100532.69;4890370;29;20072;-75
2022/05/17 03:04:53;;;;;;;12.82;9.20;;;;;;;17.29;80.55;100588.31;4892559;29;20036;-75
2022/05/17 03:07:19;;;;;;;13.55;10.32;;;;;;;16.95;80.24;100543.16;4890925;29;20068;-75
2022/05/17 03:09:47;;;;;;;9.88;8.77;;;;;;;17.14;80.76;100560.41;4886825;29;20127;-75
2022/05/17 03:12:13;;;;;;;20.23;11.13;;;;;;;17.39;80.28;100595.09;4892399;29;20058;-75
2022/05/17 03:14:39;;;;;;;19.13;10.32;;;;;;;17.07;80.33;100533.16;4894272;29;20116;-75
2022/05/17 03:17:14;;;;;;;12.57;9.55;;;;;;;17.40;79.91;100588.91;4889299;29;20075;-75
2022/05/17 03:19:45;;;;;;;23.23;8.95;;;;;;;17.42;79.98;100588.84;4893099;29;20040;-74
2022/05/17 03:22:12;;;;;;;15.40;10.98;;;;;;;16.86;80.85;100539.84;4897008;29;20037;-74
2022/05/17 03:24:39;;;;;;;15.48;9.43;;;;;;;17.08;81.69;100592.34;4894300;29;20036;-74
2022/05/17 03:27:06;;;;;;;21.45;9.77;;;;;;;17.07;81.46;100590.63;4894940;29;20691;-74
2022/05/17 03:29:31;;;;;;;16.65;10.35;;;;;;;17.27;81.31;100577.72;4893618;29;20072;-74
2022/05/17 03:32:04;;;;;;;18.40;10.90;;;;;;;17.05;81.20;100532.31;4891479;29;20053;-74
2022/05/17 03:34:32;;;;;;;;;;;;;;;17.43;80.76;100583.50;4890763;29;20053;-75
2022/05/17 03:36:57;;;;;;;16.95;10.85;;;;;;;17.18;80.44;100556.72;4892923;29;19941;-74
2022/05/17 03:39:25;;;;;;;17.35;9.73;;;;;;;17.32;79.93;100567.00;4882677;29;20052;-75
2022/05/17 03:41:51;;;;;;;16.83;11.20;;;;;;;17.26;80.52;100568.03;4895472;29;20429;-75
2022/05/17 03:44:17;;;;;;;17.90;11.55;;;;;;;17.44;79.75;100587.94;4893535;29;20151;-74
2022/05/17 03:46:43;;;;;;;14.27;11.45;;;;;;;17.12;80.68;100554.25;4891202;29;20052;-75
2022/05/17 03:49:10;;;;;;;17.30;10.25;;;;;;;17.22;79.10;100560.19;4889170;29;20104;-74
2022/05/17 03:51:35;;;;;;;14.23;11.07;;;;;;;17.69;79.48;100614.69;4898198;29;20048;-75
2022/05/17 03:54:01;;;;;;;13.13;9.93;;;;;;;17.41;78.73;100572.06;4914015;29;20103;-75
2022/05/17 03:56:28;;;;;;;12.45;11.25;;;;;;;17.78;78.62;100605.63;4894662;29;20083;-74
2022/05/17 03:58:54;;;;;;;18.02;12.30;;;;;;;17.70;78.64;100597.88;4894016;29;20048;-74
2022/05/17 04:01:19;;;;;;;14.02;9.95;;;;;;;17.78;78.31;100616.22;4888965;29;20060;-74
2022/05/17 04:03:45;;;;;;;18.63;12.48;;;;;;;17.85;78.02;100601.91;4886410;29;20055;-74
2022/05/17 04:06:12;;;;;;;14.25;12.02;;;;;;;17.63;77.87;100553.81;4893609;29;20591;-74
2022/05/17 04:08:40;;;;;;;14.15;10.85;;;;;;;17.99;77.45;100612.16;4890282;29;20080;-74
2022/05/17 04:11:06;;;;;;;22.33;12.18;;;;;;;18.02;77.06;100601.44;4891398;29;20044;-74
2022/05/17 04:13:33;;;;;;;16.30;11.85;;;;;;;18.00;76.47;100595.31;4896949;29;20048;-74
2022/05/17 04:16:01;;;;;;;19.23;13.10;;;;;;;18.12;76.67;100589.66;4892640;29;20098;-74
2022/05/17 04:18:27;;;;;;;18.35;10.88;;;;;;;18.00;77.09;100586.47;4884736;29;20032;-74
2022/05/17 04:20:59;;;;;;;20.48;13.18;;;;;;;17.88;77.47;100564.66;4912700;29;20040;-75
2022/05/17 04:23:25;;;;;;;20.02;12.85;;;;;;;17.96;77.02;100568.88;4875954;29;20052;-75
2022/05/17 04:25:52;;;;;;;14.73;11.13;;;;;;;18.45;75.21;100610.88;4894222;29;20082;-74
2022/05/17 04:28:19;;;;;;;18.15;11.25;;;;;;;18.27;75.40;100553.81;4870113;29;20048;-75
2022/05/17 04:30:45;;;;;;;16.27;12.20;;;;;;;18.34;74.53;100571.31;4892692;29;20511;-74
2022/05/17 04:33:11;;;;;;;28.25;11.18;;;;;;;18.25;73.63;100557.44;4891107;29;20126;-74
2022/05/17 04:35:37;;;;;;;19.05;11.73;;;;;;;18.53;72.87;100576.94;4876040;29;20061;-75
2022/05/17 04:38:02;;;;;;;18.33;13.82;;;;;;;18.55;72.17;100563.63;4890581;29;20135;-74
2022/05/17 04:40:28;;;;;;;16.85;12.45;;;;;;;18.71;72.05;100578.19;4895043;29;20556;-74
2022/05/17 04:42:57;;;;;;;23.38;13.27;;;;;;;18.90;71.49;100575.84;4887961;29;20051;-74
2022/05/17 04:45:24;;;;;;;18.02;12.98;;;;;;;19.03;71.28;100612.69;4888336;29;20040;-75
2022/05/17 04:47:50;;;;;;;29.40;12.77;;;;;;;19.19;71.02;100620.09;4907079;29;20028;-74
2022/05/17 04:50:17;;;;;;;15.15;12.38;;;;;;;19.02;69.95;100561.28;4886854;29;20073;-74
2022/05/17 04:52:43;;;;;;;15.55;12.65;;;;;;;19.45;69.20;100574.94;4892274;29;20104;-75
2022/05/17 04:55:11;;;;;;;12.63;11.35;;;;;;;19.52;70.15;100608.41;4897912;29;20064;-75
2022/05/17 04:57:38;;;;;;;21.90;12.55;;;;;;;19.54;70.99;100623.41;4898264;29;20036;-74
2022/05/17 05:00:17;;;;;;;17.30;12.48;;;;;;;19.44;69.23;100567.88;4897922;29;20040;-75
2022/05/17 05:02:43;;;;;;;15.00;13.13;;;;;;;19.68;69.26;100588.34;4886306;29;20056;-75
2022/05/17 05:05:12;;;;;;;17.48;12.55;;;;;;;19.68;70.07;100582.13;4895083;29;20163;-75
2022/05/17 05:07:38;;;;;;;18.38;12.95;;;;;;;19.87;68.41;100585.91;4888394;29;20056;-75
2022/05/17 05:10:07;;;;;;;18.77;14.55;;;;;;;20.14;67.60;100578.72;4897056;29;20095;-76
2022/05/17 05:12:33;;;;;;;21.98;13.52;;;;;;;20.37;66.72;100580.53;4908718;29;20060;-76
2022/05/17 05:15:00;;;;;;;18.83;12.48;;;;;;;20.58;65.78;100575.31;4897348;29;20047;-77
2022/05/17 05:17:31;;;;;;;28.73;16.02;;;;;;;20.87;65.46;100599.06;4893317;29;20044;-76
2022/05/17 05:19:57;;;;;;;54.35;24.13;;;;;;;20.97;64.72;100574.69;4894074;29;20084;-76
2022/05/17 05:22:23;;;;;;;17.88;14.55;;;;;;;20.61;65.76;100572.56;4893387;29;20068;-76
2022/05/17 05:24:50;;;;;;;25.35;16.27;;;;;;;21.20;64.55;100608.44;4885961;29;20060;-76
2022/05/17 05:27:16;;;;;;;23.23;16.65;;;;;;;21.59;64.00;100602.41;4894678;29;20040;-74
2022/05/17 05:29:43;;;;;;;24.88;15.48;;;;;;;21.60;62.96;100578.28;4890243;29;20109;-73
2022/05/17 05:32:11;;;;;;;26.35;17.70;;;;;;;21.72;62.03;100576.88;4874651;29;20513;-74
2022/05/17 05:34:38;;;;;;;40.10;19.40;;;;;;;21.82;61.45;100593.38;4884839;29;20052;-75
2022/05/17 05:37:07;;;;;;;36.80;18.98;;;;;;;22.24;61.03;100605.78;4873676;29;20060;-76
2022/05/17 05:39:34;;;;;;;32.63;18.45;;;;;;;22.20;60.58;100590.81;4891337;29;20032;-75
2022/05/17 05:41:59;;;;;;;31.08;19.63;;;;;;;22.53;60.45;100615.16;4906652;29;20043;-75
2022/05/17 05:44:34;;;;;;;38.97;22.95;;;;;;;22.60;59.36;100594.34;4887074;29;20053;-75
2022/05/17 05:47:06;;;;;;;38.80;19.50;;;;;;;22.45;59.31;100586.13;4892149;29;20056;-77
2022/05/17 05:49:32;;;;;;;24.48;13.52;;;;;;;22.20;63.03;100585.47;4883281;29;20124;-73
2022/05/17 05:51:57;;;;;;;26.52;16.73;;;;;;;22.63;59.96;100573.66;4878809;29;20513;-73
2022/05/17 05:54:23;;;;;;;26.83;16.75;;;;;;;23.12;59.19;100618.63;4898243;29;20064;-73
2022/05/17 05:56:49;;;;;;;31.98;19.95;;;;;;;22.95;59.78;100569.44;4893220;29;20037;-73
2022/05/17 05:59:14;;;;;;;25.83;11.13;;;;;;;22.67;63.34;100561.03;4882106;29;20416;-73
2022/05/17 06:01:40;;;;;;;28.63;12.93;;;;;;;22.87;63.45;100614.41;4876551;29;20044;-73
2022/05/17 06:04:06;;;;;;;42.80;22.50;;;;;;;22.83;59.50;100575.41;4885516;29;20076;-73
2022/05/17 06:06:32;;;;;;;20.40;14.65;;;;;;;22.82;61.00;100570.97;4888301;29;20569;-73
2022/05/17 06:08:58;;;;;;;27.85;17.15;;;;;;;23.12;57.78;100583.84;4888589;29;20056;-74
2022/05/17 06:11:23;;;;;;;27.05;15.18;;;;;;;23.30;60.86;100608.84;4886494;29;20549;-73
2022/05/17 06:13:50;;;;;;;26.95;17.85;;;;;;;23.17;56.67;100619.28;4892282;29;20544;-73
2022/05/17 06:16:16;;;;;;;15.35;11.02;;;;;;;23.11;61.09;100611.56;4885008;29;20036;-74
2022/05/17 06:18:42;;;;;;;17.42;13.25;;;;;;;23.33;60.13;100620.25;4888112;29;20568;-75
2022/05/17 06:21:08;;;;;;;21.77;15.23;;;;;;;23.18;59.78;100613.00;4886288;29;20040;-73
2022/05/17 06:23:35;;;;;;;19.48;13.65;;;;;;;23.06;59.15;100585.00;4889972;29;20353;-73
2022/05/17 06:26:01;;;;;;;25.42;15.85;;;;;;;23.22;57.46;100568.16;4889585;29;20068;-74
2022/05/17 06:28:27;;;;;;;22.10;14.63;;;;;;;23.36;57.79;100604.00;4885701;29;20497;-74
2022/05/17 06:30:53;;;;;;;20.35;13.70;;;;;;;23.60;56.67;100591.22;4889935;29;20080;-73
2022/05/17 06:33:19;;;;;;;22.85;15.52;;;;;;;23.49;56.70;100588.22;4890723;29;20037;-73
2022/05/17 06:35:45;;;;;;;24.48;13.23;;;;;;;23.19;57.17;100582.59;4901383;29;20040;-74
2022/05/17 06:38:12;;;;;;;17.92;12.40;;;;;;;23.57;54.33;100594.03;4889006;29;20218;-74
2022/05/17 06:40:38;;;;;;;21.90;13.02;;;;;;;24.09;53.41;100627.13;4888100;29;20070;-73
2022/05/17 06:43:04;;;;;;;11.27;9.40;;;;;;;24.15;52.54;100608.06;4888749;29;20504;-73
2022/05/17 06:45:30;;;;;;;11.95;8.02;;;;;;;23.92;52.69;100587.81;4886680;29;20040;-73
2022/05/17 06:47:55;;;;;;;17.05;7.40;;;;;;;24.25;52.27;100622.69;4888325;29;20041;-73
2022/05/17 06:50:21;;;;;;;15.55;10.73;;;;;;;24.22;53.54;100625.53;4884344;29;20060;-73
2022/05/17 06:52:47;;;;;;;13.60;10.27;;;;;;;24.50;53.17;100619.59;4898037;29;20058;-72
2022/05/17 06:55:13;;;;;;;11.85;10.57;;;;;;;24.01;52.33;100585.50;4888613;29;20055;-75
2022/05/17 06:57:43;;;;;;;23.20;10.23;;;;;;;24.44;51.03;100625.25;4894157;29;20449;-76
2022/05/17 07:00:12;;;;;;;15.00;9.38;;;;;;;24.49;50.39;100625.91;4893686;29;20036;-77
2022/05/17 07:02:39;;;;;;;21.08;10.10;;;;;;;24.02;50.49;100586.38;4886912;29;20056;-75
2022/05/17 07:05:06;;;;;;;21.88;10.45;;;;;;;24.34;51.45;100629.38;4892684;29;20052;-75
2022/05/17 07:07:32;;;;;;;12.45;8.52;;;;;;;24.40;51.11;100592.38;4902427;29;20060;-76
2022/05/17 07:15:28;;;;;;;16.83;10.77;;;;;;;24.35;51.34;100577.47;4883432;29;20042;-75
2022/05/17 07:18:01;;;;;;;20.50;8.70;;;;;;;24.50;51.46;100629.47;4889506;29;20590;-75
2022/05/17 07:20:28;;;;;;;18.55;9.50;;;;;;;24.15;51.91;100584.78;4889977;29;20052;-75
2022/05/17 07:22:56;;;;;;;20.63;8.45;;;;;;;23.90;53.31;100600.44;4903764;29;20047;-76
2022/05/17 07:25:22;;;;;;;11.95;7.15;;;;;;;24.10;53.66;100577.94;4891567;29;20072;-75
2022/05/17 07:27:48;;;;;;;12.60;7.40;;;;;;;24.55;53.13;100624.69;4883926;29;20052;-75
2022/05/17 07:30:15;;;;;;;13.73;7.32;;;;;;;24.52;53.68;100608.78;4893903;29;20040;-77
2022/05/17 07:32:41;;;;;;;17.13;8.65;;;;;;;24.73;51.63;100604.03;4867657;29;20098;-76
2022/05/17 07:35:07;;;;;;;15.18;8.10;;;;;;;24.84;51.18;100601.59;4894809;29;20689;-76
2022/05/17 07:37:34;;;;;;;13.48;7.07;;;;;;;24.50;51.79;100606.19;4891359;29;20044;-76
2022/05/17 07:40:00;;;;;;;21.10;6.07;;;;;;;24.67;51.24;100583.75;4892042;29;20048;-76
2022/05/17 07:42:27;;;;;;;18.77;7.20;;;;;;;24.47;51.15;100587.56;4889665;29;20107;-76
2022/05/17 07:44:54;;;;;;;11.75;7.38;;;;;;;24.46;51.40;100598.34;4892873;29;20044;-76
2022/05/17 07:47:21;;;;;;;10.45;6.72;;;;;;;24.32;51.22;100597.28;4886972;29;20060;-77
2022/05/17 07:49:47;;;;;;;13.77;6.88;;;;;;;24.70;52.93;100609.56;4890325;29;20835;-77
2022/05/17 07:52:15;;;;;;;11.52;7.00;;;;;;;25.02;50.53;100611.28;4878999;29;20784;-77
2022/05/17 07:54:43;;;;;;;8.05;5.53;;;;;;;24.96;50.11;100579.44;4884083;29;20048;-77
2022/05/17 07:57:08;;;;;;;13.57;7.65;;;;;;;25.15;49.97;100624.91;4893869;29;20073;-75
2022/05/17 07:59:36;;;;;;;18.92;5.85;;;;;;;24.74;49.93;100570.88;4896072;29;20059;-76
2022/05/17 08:02:11;;;;;;;17.73;8.15;;;;;;;25.01;50.50;100572.00;4891788;29;20053;-76
2022/05/17 08:04:36;;;;;;;11.52;6.57;;;;;;;25.05;50.21;100569.97;4897009;29;20051;-76
2022/05/17 08:07:02;;;;;;;14.75;7.85;;;;;;;24.57;50.51;100575.38;4898662;29;20048;-76
2022/05/17 08:09:28;;;;;;;14.10;6.78;;;;;;;25.46;51.31;100607.88;4896075;29;20040;-76
2022/05/17 08:11:54;;;;;;;12.43;6.85;;;;;;;24.60;52.15;100598.47;4892230;29;20596;-76
2022/05/17 08:14:21;;;;;;;12.25;7.75;;;;;;;25.36;50.68;100597.78;4894060;29;20060;-76
2022/05/17 08:16:48;;;;;;;13.60;6.53;;;;;;;25.76;50.52;100598.97;4893790;29;20056;-76
2022/05/17 08:19:15;;;;;;;12.63;6.68;;;;;;;25.90;49.39;100595.47;4893126;29;20060;-76
2022/05/17 08:21:42;;;;;;;10.88;7.53;;;;;;;26.20;47.89;100606.16;4888586;29;20085;-77
2022/05/17 08:24:08;;;;;;;9.43;6.07;;;;;;;25.79;47.71;100560.25;4894590;29;20047;-76
2022/05/17 08:29:20;;;;;;;7.32;4.88;;;;;;;26.40;46.37;100579.81;4896886;29;20059;-75
2022/05/17 08:34:36;;;;;;;9.25;5.45;;;;;;;26.55;46.63;100584.25;4894640;29;20464;-76
2022/05/17 08:37:08;;;;;;;6.38;5.13;;;;;;;26.68;44.76;100562.78;4892882;29;20056;-76
2022/05/17 08:39:35;;;;;;;9.43;6.15;;;;;;;26.60;41.14;100551.63;4889208;29;20036;-76
2022/05/17 08:42:18;;;;;;;10.77;6.60;;;;;;;27.12;43.69;100550.91;4895393;29;20115;-77
2022/05/17 08:44:52;;;;;;;23.23;6.43;;;;;;;25.99;44.41;100565.31;4893218;29;20069;-76
2022/05/17 08:47:49;;;;;;;10.10;4.78;;;;;;;26.25;42.91;100542.16;4895227;29;20111;-75
2022/05/17 08:50:25;;;;;;;10.45;6.07;;;;;;;27.25;43.21;100568.00;4894129;29;20087;-76
2022/05/17 08:52:54;;;;;;;8.13;5.82;;;;;;;27.40;40.64;100579.59;4882494;29;20072;-76
2022/05/17 08:55:42;;;;;;;11.35;6.30;;;;;;;27.90;40.67;100580.66;4891802;29;20103;-76
2022/05/17 08:58:22;;;;;;;12.13;6.32;;;;;;;28.22;38.88;100565.88;4881605;29;20165;-76
2022/05/17 09:01:14;;;;;;;19.17;6.68;;;;;;;28.06;40.75;100537.28;4885409;29;20053;-75
2022/05/17 09:03:59;;;;;;;6.45;4.68;;;;;;;27.84;38.76;100570.31;4896386;29;20052;-75
2022/05/17 09:06:25;;;;;;;12.05;6.15;;;;;;;27.17;39.56;100529.91;4892979;29;20127;-75
2022/05/17 09:09:27;;;;;;;9.57;6.88;;;;;;;27.63;39.43;100525.91;4896034;29;20036;-75
2022/05/17 09:11:57;;;;;;;8.85;5.32;;;;;;;27.91;38.57;100522.16;4895127;29;20052;-75
2022/05/17 09:14:27;;;;;;;10.57;5.63;;;;;;;28.30;39.51;100525.69;4887561;29;20184;-75
2022/05/17 09:17:06;;;;;;;8.43;6.30;;;;;;;27.96;38.08;100526.28;4893005;29;20055;-76
2022/05/17 09:19:33;;;;;;;10.77;5.32;;;;;;;28.95;39.12;100541.59;4890938;29;20056;-76
2022/05/17 09:22:00;;;;;;;12.43;7.18;;;;;;;29.13;38.90;100533.13;4892239;29;20068;-76
2022/05/17 09:24:41;;;;;;;14.93;7.28;;;;;;;28.40;38.60;100534.84;4887548;29;20062;-76
2022/05/17 09:27:22;;;;;;;9.60;5.78;;;;;;;28.37;38.62;100495.44;4907370;29;20031;-76
2022/05/17 09:29:53;;;;;;;19.27;8.32;;;;;;;29.16;38.56;100527.50;4892036;29;20059;-76
2022/05/17 09:32:32;;;;;;;23.27;12.35;;;;;;;29.73;38.43;100498.78;4898020;29;20073;-76
2022/05/17 09:35:03;;;;;;;21.50;12.32;;;;;;;29.08;38.09;100474.03;4874656;29;20604;-75
2022/05/17 09:37:39;;;;;;;21.40;11.13;;;;;;;29.50;37.16;100517.66;4894746;29;20055;-76
2022/05/17 09:40:08;;;;;;;30.52;14.40;;;;;;;29.80;36.78;100487.34;4899517;29;20056;-76
2022/05/17 09:42:56;;;;;;;36.17;19.88;;;;;;;30.25;38.10;100484.63;4898074;29;20028;-76
2022/05/17 09:46:00;;;;;;;30.83;18.08;;;;;;;29.60;37.10;100515.94;4885249;29;20076;-75
2022/05/17 09:54:43;;;;;;;33.67;20.73;;;;;;;28.99;37.53;100470.16;4896390;29;20139;-75
2022/05/17 09:57:14;;;;;;;43.70;23.92;;;;;;;29.77;35.78;100478.63;4898565;29;20123;-76
2022/05/17 09:59:42;;;;;;;87.20;38.40;;;;;;;30.18;34.83;100479.81;4892099;29;20524;-75
2022/05/17 10:02:35;;;;;;;68.13;26.25;;;;;;;30.16;34.39;100460.16;4909680;29;20049;-75
2022/05/17 10:05:48;;;;;;;70.50;31.00;;;;;;;30.40;35.09;100447.34;4909795;29;20072;-76
2022/05/17 10:08:19;;;;;;;87.78;34.45;;;;;;;29.03;37.76;100459.94;4892907;29;20499;-76
2022/05/17 10:10:53;;;;;;;70.68;25.90;;;;;;;29.58;36.41;100460.25;4896940;29;20072;-76
2022/05/17 10:13:52;;;;;;;101.47;36.90;;;;;;;29.96;32.73;100464.47;4896676;29;20139;-75
2022/05/17 10:16:41;;;;;;;110.45;40.28;;;;;;;30.09;32.71;100484.16;4895679;29;20044;-75
2022/05/17 10:19:29;;;;;;;96.97;34.05;;;;;;;29.62;33.23;100446.38;4892913;29;20132;-75
2022/05/17 10:22:01;;;;;;;102.07;33.38;;;;;;;30.34;31.58;100490.31;4910594;29;20107;-76
2022/05/17 10:24:47;;;;;;;119.82;43.15;;;;;;;30.09;32.97;100444.41;4885182;29;20040;-75
2022/05/17 10:27:37;;;;;;;109.47;35.85;;;;;;;30.48;30.93;100484.59;4905641;29;20120;-75
2022/05/17 10:30:35;;;;;;;107.80;37.42;;;;;;;29.07;32.60;100431.75;4893059;29;20048;-75
2022/05/17 10:33:10;;;;;;;122.53;40.88;;;;;;;28.18;33.44;100427.59;4885502;29;20116;-75
2022/05/17 10:35:52;;;;;;;100.68;32.97;;;;;;;30.29;32.85;100459.03;4872180;29;20059;-75
2022/05/17 10:38:37;;;;;;;105.22;36.30;;;;;;;30.09;32.52;100428.16;4888008;29;20059;-75
2022/05/17 10:41:11;;;;;;;87.10;29.38;;;;;;;30.96;31.71;100459.00;4891422;29;20052;-75
2022/05/17 10:43:44;;;;;;;108.40;33.35;;;;;;;31.42;31.49;100431.53;4872106;29;20060;-76
2022/05/17 10:46:17;;;;;;;94.38;33.38;;;;;;;30.96;30.43;100450.88;4893784;29;20158;-75
2022/05/17 10:49:21;;;;;;;96.00;31.33;;;;;;;31.21;31.04;100426.09;4899820;29;20112;-75
2022/05/17 10:52:13;;;;;;;105.63;30.35;;;;;;;32.05;30.97;100442.22;4893188;29;20118;-76
2022/05/17 10:54:50;;;;;;;100.67;27.67;;;;;;;32.06;29.80;100402.38;4878298;29;20087;-76
2022/05/17 10:57:17;;;;;;;81.07;27.75;;;;;;;32.27;29.85;100429.44;4908473;29;20100;-76
2022/05/17 10:59:56;;;;;;;82.18;30.33;;;;;;;31.27;29.96;100389.44;4882126;29;20052;-76
2022/05/17 11:03:12;;;;;;;83.28;25.08;;;;;;;31.37;30.33;100403.03;4896830;29;20049;-76
2022/05/17 11:05:58;;;;;;;46.30;17.25;;;;;;;30.78;31.67;100431.56;4896297;29;20067;-76
2022/05/17 11:09:02;;;;;;;61.78;24.77;;;;;;;31.32;29.69;100423.28;4894107;29;20452;-75
2022/05/17 11:11:49;;;;;;;71.03;24.83;;;;;;;30.97;29.76;100425.47;4894187;29;20036;-76
2022/05/17 11:14:32;;;;;;;75.22;27.63;;;;;;;30.26;30.76;100418.69;4894216;29;20058;-75
2022/05/17 11:17:23;;;;;;;80.28;27.02;;;;;;;30.48;29.32;100409.66;4895580;29;20096;-75
2022/05/17 11:20:14;;;;;;;60.33;22.70;;;;;;;31.09;29.96;100406.31;4894556;29;20060;-75
2022/05/17 11:23:05;;;;;;;83.22;31.23;;;;;;;31.38;30.36;100374.94;4887481;29;20069;-75
2022/05/17 11:25:43;;;;;;;59.78;21.38;;;;;;;31.22;29.13;100408.81;4894727;29;20172;-76
2022/05/17 11:28:36;;;;;;;42.88;16.40;;;;;;;31.10;29.32;100367.34;4896189;29;20056;-78
2022/05/17 11:31:16;;;;;;;65.03;21.40;;;;;;;31.46;29.65;100394.97;4893214;29;20116;-77
2022/05/17 11:33:42;;;;;;;60.35;22.85;;;;;;;30.11;30.04;100402.81;4893089;29;20052;-78
2022/05/17 11:36:34;;;;;;;47.38;19.15;;;;;;;29.66;31.31;100365.81;4894706;29;20156;-76
2022/05/17 11:39:00;;;;;;;68.43;23.63;;;;;;;28.85;30.98;100404.66;4906547;29;20131;-76
2022/05/17 11:41:49;;;;;;;39.22;16.10;;;;;;;29.70;30.82;100359.22;4891335;29;20053;-76
2022/05/17 11:44:26;;;;;;;46.75;19.05;;;;;;;29.87;30.01;100355.13;4896062;29;20164;-77
2022/05/17 11:46:59;;;;;;;61.20;19.98;;;;;;;29.93;31.75;100349.22;4891933;29;20080;-76
2022/05/17 11:49:40;;;;;;;29.38;13.25;;;;;;;29.99;30.98;100370.38;4889765;29;20059;-77
2022/05/17 11:52:10;;;;;;;76.18;27.40;;;;;;;30.00;30.27;100369.38;4891664;29;23142;-76